Yasemin — 9HA2114 — position and weather

sailwx.info

Track history (hours):
 
Tides and Currents Weather Stations Pressure Air Temp Water Temp Dewpoint Dewpoint Depression Visibility Wind Speed Wind Dir Waves Ship Positions

Yasemin

Last reported at 2014-Oct-30 21:04 UTC. Time now 2014-Oct-31 04:08 UTC.
Position N 40°54' E 028°42'.

Length 105 m; draft 6.3 m.

Type: Cargo ship. MMSI: 249988000.

Date/timePositionNaut miles runAvg speedWind from/ knotsBaromVisibWave heightAir tempDewpointWater temp
2014-Oct-30 21:04N 40°54' E 028°42'711.0
2014-Oct-30 20:23N 40°56' E 028°52'3 0.9
2014-Oct-30 17:14N 40°58' E 028°54'0 0.0
2014-Oct-30 16:32N 40°58' E 028°54'1 1.3
2014-Oct-30 15:33N 40°57' E 028°56'1311.1
2014-Oct-30 14:25N 41°09' E 029°04'8 9.0
2014-Oct-30 13:32N 41°16' E 029°06'1 1.3
2014-Oct-30 12:27N 41°16' E 029°05'0 0.0
2014-Oct-30 10:27N 41°16' E 029°04'0 0.0
2014-Oct-30 09:18N 41°16' E 029°04'0 0.0
2014-Oct-30 08:33N 41°16' E 029°04'5 4.7
2014-Oct-30 07:29N 41°21' E 029°07'  
Track history (hours):
 
Tides and Currents Weather Stations Pressure Air Temp Water Temp Dewpoint Dewpoint Depression Visibility Wind Speed Wind Dir Waves Ship Positions

Yasemin

Last reported at 2014-Oct-30 21:04 UTC. Time now 2014-Oct-31 04:08 UTC.
Position N 40°54' E 028°42'.

Length 105 m; draft 6.3 m.

Type: Cargo ship. MMSI: 249988000.

Date/timePositionNaut miles runAvg speedWind from/ knotsBaromVisibWave heightAir tempDewpointWater temp
2014-Oct-30 21:04N 40°54' E 028°42'711.0
2014-Oct-30 20:23N 40°56' E 028°52'3 0.9
2014-Oct-30 17:14N 40°58' E 028°54'0 0.0
2014-Oct-30 16:32N 40°58' E 028°54'1 1.3
2014-Oct-30 15:33N 40°57' E 028°56'1311.1
2014-Oct-30 14:25N 41°09' E 029°04'8 9.0
2014-Oct-30 13:32N 41°16' E 029°06'1 1.3
2014-Oct-30 12:27N 41°16' E 029°05'0 0.0
2014-Oct-30 10:27N 41°16' E 029°04'0 0.0
2014-Oct-30 09:18N 41°16' E 029°04'0 0.0
2014-Oct-30 08:33N 41°16' E 029°04'5 4.7
2014-Oct-30 07:29N 41°21' E 029°07'  

Dump ship's entire track history